createdAt,value
2016-05-11T00:00:31.106Z,0
2016-05-11T00:01:31.092Z,0
2016-05-11T00:02:31.095Z,0
2016-05-11T00:03:30.942Z,0
2016-05-11T00:04:30.928Z,0
2016-05-11T00:05:30.947Z,0
2016-05-11T00:06:31.122Z,0
2016-05-11T00:07:31.124Z,0
2016-05-11T00:08:30.972Z,0
2016-05-11T00:09:31.145Z,0
2016-05-11T00:10:30.991Z,0
2016-05-11T00:11:31.167Z,0
2016-05-11T00:12:30.841Z,0
2016-05-11T00:13:31.030Z,0
2016-05-11T00:14:31.175Z,0
2016-05-11T00:15:31.146Z,0
2016-05-11T00:16:31.196Z,0
2016-05-11T00:17:31.198Z,0
2016-05-11T00:18:31.248Z,0
2016-05-11T00:19:31.219Z,0
2016-05-11T00:20:31.065Z,0
2016-05-11T00:21:31.068Z,0
2016-05-11T00:22:31.243Z,0
2016-05-11T00:23:31.229Z,0
2016-05-11T00:24:31.249Z,0
2016-05-11T00:25:31.110Z,0
2016-05-11T00:26:30.957Z,0
2016-05-11T00:27:31.116Z,0
2016-05-11T00:28:31.275Z,0
2016-05-11T00:29:31.293Z,0
2016-05-11T00:30:31.764Z,0
2016-05-11T00:31:31.314Z,0
2016-05-11T00:32:31.192Z,0
2016-05-11T00:33:31.320Z,0
2016-05-11T00:34:31.322Z,0
2016-05-11T00:35:31.184Z,0
2016-05-11T00:36:31.343Z,0
2016-05-11T00:37:31.330Z,0
2016-05-11T00:38:31.192Z,0
2016-05-11T00:39:31.351Z,0
2016-05-11T00:40:31.369Z,0
2016-05-11T00:41:31.372Z,0
2016-05-11T00:42:31.374Z,0
2016-05-11T00:43:31.394Z,0
2016-05-11T00:44:31.396Z,0
2016-05-11T00:45:31.274Z,0
2016-05-11T00:46:31.417Z,0
2016-05-11T00:47:31.263Z,0
2016-05-11T00:48:31.422Z,0
2016-05-11T00:49:31.113Z,0
2016-05-11T00:50:31.130Z,0
2016-05-11T00:51:31.446Z,0
2016-05-11T00:52:31.292Z,0
2016-05-11T00:53:31.310Z,0
2016-05-11T00:54:31.470Z,0
2016-05-11T00:55:31.488Z,0
2016-05-11T00:56:31.475Z,0
2016-05-11T00:57:31.493Z,0
2016-05-11T00:58:31.512Z,0
2016-05-11T00:59:31.373Z,0
2016-05-11T01:00:31.829Z,0
2016-05-11T01:01:31.534Z,0
2016-05-11T01:02:31.537Z,0
2016-05-11T01:03:31.400Z,0
2016-05-11T01:04:31.231Z,0
2016-05-11T01:05:31.578Z,0
2016-05-11T01:06:31.267Z,0
2016-05-11T01:07:31.255Z,0
2016-05-11T01:08:31.553Z,0
2016-05-11T01:09:31.431Z,0
2016-05-11T01:10:31.591Z,0
2016-05-11T01:11:31.594Z,0
2016-05-11T01:12:31.440Z,0
2016-05-11T01:13:31.614Z,0
2016-05-11T01:14:31.633Z,0
2016-05-11T01:15:31.166Z,0
2016-05-11T01:16:31.483Z,0
2016-05-11T01:17:31.640Z,0
2016-05-11T01:18:31.487Z,0
2016-05-11T01:19:31.490Z,0
2016-05-11T01:20:31.508Z,0
2016-05-11T01:21:31.668Z,0
2016-05-11T01:22:31.513Z,0
2016-05-11T01:23:31.813Z,0
2016-05-11T01:24:31.534Z,0
2016-05-11T01:25:31.538Z,0
2016-05-11T01:26:31.696Z,0
2016-05-11T01:27:31.699Z,0
2016-05-11T01:28:31.765Z,0
2016-05-11T01:29:31.735Z,0
2016-05-11T01:30:31.675Z,0
2016-05-11T01:31:31.756Z,0
2016-05-11T01:32:31.588Z,0
2016-05-11T01:33:31.590Z,0
2016-05-11T01:34:31.812Z,0
2016-05-11T01:35:31.767Z,0
2016-05-11T01:36:31.786Z,0
2016-05-11T01:37:31.631Z,0
2016-05-11T01:38:31.792Z,0
2016-05-11T01:39:31.653Z,0
2016-05-11T01:40:31.811Z,0
2016-05-11T01:41:31.800Z,0
2016-05-11T01:42:31.833Z,0
2016-05-11T01:43:31.836Z,0
2016-05-11T01:44:31.839Z,0
2016-05-11T01:45:32.107Z,0
2016-05-11T01:46:31.843Z,0
2016-05-11T01:47:31.862Z,0
2016-05-11T01:48:31.866Z,0
2016-05-11T01:49:31.711Z,0
2016-05-11T01:50:31.574Z,0
2016-05-11T01:51:31.560Z,0
2016-05-11T01:52:31.891Z,0
2016-05-11T01:53:31.910Z,0
2016-05-11T01:54:31.912Z,0
2016-05-11T01:55:31.915Z,0
2016-05-11T01:56:31.777Z,0
2016-05-11T01:57:31.780Z,0
2016-05-11T01:58:31.938Z,0
2016-05-11T01:59:31.957Z,0
2016-05-11T02:00:32.381Z,0
2016-05-11T02:01:31.962Z,0
2016-05-11T02:02:31.964Z,0
2016-05-11T02:03:31.812Z,0
2016-05-11T02:04:31.830Z,0
2016-05-11T02:05:31.989Z,0
2016-05-11T02:06:31.991Z,0
2016-05-11T02:07:31.837Z,0
2016-05-11T02:08:31.856Z,0
2016-05-11T02:09:31.999Z,0
2016-05-11T02:10:31.736Z,0
2016-05-11T02:11:32.036Z,0
2016-05-11T02:12:32.039Z,0
2016-05-11T02:13:31.728Z,0
2016-05-11T02:14:31.888Z,0
2016-05-11T02:15:32.172Z,0
2016-05-11T02:16:32.097Z,0
2016-05-11T02:17:32.068Z,0
2016-05-11T02:18:31.930Z,0
2016-05-11T02:19:32.089Z,0
2016-05-11T02:20:31.951Z,0
2016-05-11T02:21:31.954Z,0
2016-05-11T02:22:31.644Z,0
2016-05-11T02:23:31.959Z,0
2016-05-11T02:24:32.133Z,0
2016-05-11T02:25:32.135Z,0
2016-05-11T02:26:31.826Z,0
2016-05-11T02:27:31.845Z,0
2016-05-11T02:28:32.019Z,0
2016-05-11T02:29:32.178Z,0
2016-05-11T02:30:31.962Z,0
2016-05-11T02:31:32.199Z,0
2016-05-11T02:32:31.874Z,0
2016-05-11T02:33:32.189Z,0
2016-05-11T02:34:32.035Z,0
2016-05-11T02:35:32.053Z,0
2016-05-11T02:36:31.900Z,0
2016-05-11T02:37:32.231Z,0
2016-05-11T02:38:32.234Z,0
2016-05-11T02:39:31.799Z,0
2016-05-11T02:40:32.255Z,0
2016-05-11T02:41:32.242Z,0
2016-05-11T02:42:32.260Z,0
2016-05-11T02:43:31.966Z,0
2016-05-11T02:44:32.296Z,0
2016-05-11T02:45:33.128Z,0
2016-05-11T02:46:32.286Z,0
2016-05-11T02:47:32.133Z,0
2016-05-11T02:48:32.292Z,0
2016-05-11T02:49:32.310Z,0
2016-05-11T02:50:32.313Z,0
2016-05-11T02:51:32.331Z,0
2016-05-11T02:52:32.318Z,0
2016-05-11T02:53:32.180Z,0
2016-05-11T02:54:32.339Z,0
2016-05-11T02:55:32.357Z,0
2016-05-11T02:56:32.063Z,0
2016-05-11T02:57:32.206Z,0
2016-05-11T02:58:32.085Z,0
2016-05-11T02:59:32.400Z,0
2016-05-11T03:00:32.277Z,0
2016-05-11T03:01:32.232Z,0
2016-05-11T03:02:32.095Z,0
2016-05-11T03:03:32.237Z,0
2016-05-11T03:04:32.428Z,0
2016-05-11T03:05:32.276Z,0
2016-05-11T03:06:32.450Z,0
2016-05-11T03:07:32.437Z,0
2016-05-11T03:08:32.142Z,0
2016-05-11T03:09:32.458Z,0
2016-05-11T03:10:32.444Z,0
2016-05-11T03:11:32.478Z,0
2016-05-11T03:12:32.466Z,0
2016-05-11T03:13:32.484Z,0
2016-05-11T03:14:32.486Z,0
2016-05-11T03:15:32.364Z,0
2016-05-11T03:16:32.492Z,0
2016-05-11T03:17:32.495Z,0
2016-05-11T03:18:32.513Z,0
2016-05-11T03:19:32.375Z,0
2016-05-11T03:20:32.533Z,0
2016-05-11T03:21:32.552Z,0
2016-05-11T03:22:32.524Z,0
2016-05-11T03:23:32.541Z,0
2016-05-11T03:24:32.561Z,0
2016-05-11T03:25:32.547Z,0
2016-05-11T03:26:32.410Z,0
2016-05-11T03:27:32.585Z,0
2016-05-11T03:28:32.430Z,0
2016-05-11T03:29:32.432Z,0
2016-05-11T03:30:32.802Z,0
2016-05-11T03:31:32.656Z,0
2016-05-11T03:32:32.245Z,0
2016-05-11T03:33:32.726Z,0
2016-05-11T03:34:32.799Z,0
2016-05-11T03:35:32.884Z,0
2016-05-11T03:36:32.698Z,0
2016-05-11T03:37:32.887Z,0
2016-05-11T03:38:32.904Z,0
2016-05-11T03:39:32.905Z,0
2016-05-11T03:40:32.623Z,0
2016-05-11T03:41:32.959Z,0
2016-05-11T03:42:32.966Z,0
2016-05-11T03:43:32.974Z,0
2016-05-11T03:44:32.826Z,0
2016-05-11T03:45:33.333Z,0
2016-05-11T03:46:33.025Z,0
2016-05-11T03:47:33.014Z,0
2016-05-11T03:48:32.862Z,0
2016-05-11T03:49:33.023Z,0
2016-05-11T03:50:33.043Z,0
2016-05-11T03:51:32.749Z,0
2016-05-11T03:52:33.065Z,0
2016-05-11T03:53:32.912Z,0
2016-05-11T03:54:33.071Z,0
2016-05-11T03:55:33.074Z,0
2016-05-11T03:56:33.077Z,5
2016-05-11T03:57:33.080Z,5
2016-05-11T03:58:32.942Z,5
2016-05-11T03:59:32.961Z,5
2016-05-11T04:00:33.028Z,5
2016-05-11T04:01:33.123Z,5
2016-05-11T04:02:33.142Z,5
2016-05-11T04:03:32.832Z,5
2016-05-11T04:04:33.147Z,5
2016-05-11T04:05:33.149Z,5
2016-05-11T04:06:33.152Z,5
2016-05-11T04:07:33.000Z,10
2016-05-11T04:08:33.174Z,10
2016-05-11T04:09:33.192Z,10
2016-05-11T04:10:33.179Z,10
2016-05-11T04:11:33.024Z,10
2016-05-11T04:12:32.934Z,10
2016-05-11T04:13:33.203Z,10
2016-05-11T04:14:33.065Z,15
2016-05-11T04:15:33.286Z,15
2016-05-11T04:16:33.226Z,15
2016-05-11T04:17:33.229Z,15
2016-05-11T04:18:32.919Z,15
2016-05-11T04:19:33.249Z,15
2016-05-11T04:20:33.237Z,20
2016-05-11T04:21:33.130Z,20
2016-05-11T04:22:33.117Z,20
2016-05-11T04:23:33.292Z,20
2016-05-11T04:24:33.295Z,20
2016-05-11T04:25:32.970Z,20
2016-05-11T04:26:33.285Z,20
2016-05-11T04:27:33.303Z,25
2016-05-11T04:28:33.306Z,25
2016-05-11T04:29:33.167Z,25
2016-05-11T04:30:33.358Z,30
2016-05-11T04:31:33.360Z,30
2016-05-11T04:32:33.348Z,30
2016-05-11T04:33:33.350Z,35
2016-05-11T04:34:33.368Z,35
2016-05-11T04:35:33.371Z,40
2016-05-11T04:36:33.233Z,40
2016-05-11T04:37:33.219Z,40
2016-05-11T04:38:33.223Z,40
2016-05-11T04:39:33.397Z,35
2016-05-11T04:40:33.400Z,35
2016-05-11T04:41:33.419Z,40
2016-05-11T04:42:33.405Z,40
2016-05-11T04:43:33.439Z,40
2016-05-11T04:44:33.442Z,45
2016-05-11T04:45:33.523Z,45
2016-05-11T04:46:33.432Z,45
2016-05-11T04:47:33.450Z,50
2016-05-11T04:48:33.437Z,50
2016-05-11T04:49:33.455Z,50
2016-05-11T04:50:33.474Z,50
2016-05-11T04:51:33.320Z,50
2016-05-11T04:52:33.323Z,50
2016-05-11T04:53:33.482Z,55
2016-05-11T04:54:33.500Z,55
2016-05-11T04:55:33.347Z,50
2016-05-11T04:56:33.520Z,55
2016-05-11T04:57:33.368Z,70
2016-05-11T04:58:33.370Z,80
2016-05-11T04:59:33.561Z,115
2016-05-11T05:00:34.313Z,135
2016-05-11T05:01:33.395Z,150
2016-05-11T05:02:33.569Z,190
2016-05-11T05:03:33.572Z,210
2016-05-11T05:04:33.575Z,230
2016-05-11T05:05:33.592Z,250
2016-05-11T05:06:33.439Z,255
2016-05-11T05:07:33.457Z,265
2016-05-11T05:08:33.460Z,265
2016-05-11T05:09:33.619Z,210
2016-05-11T05:10:33.622Z,180
2016-05-11T05:11:33.655Z,160
2016-05-11T05:12:33.642Z,160
2016-05-11T05:13:33.661Z,210
2016-05-11T05:14:33.647Z,310
2016-05-11T05:15:34.197Z,355
2016-05-11T05:16:33.888Z,355
2016-05-11T05:17:33.702Z,365
2016-05-11T05:18:34.127Z,375
2016-05-11T05:19:33.552Z,390
2016-05-11T05:20:33.632Z,390
2016-05-11T05:21:33.573Z,400
2016-05-11T05:22:33.857Z,410
2016-05-11T05:23:33.734Z,425
2016-05-11T05:24:33.754Z,435
2016-05-11T05:25:33.786Z,425
2016-05-11T05:26:33.602Z,415
2016-05-11T05:27:33.464Z,420
2016-05-11T05:28:33.779Z,430
2016-05-11T05:29:33.797Z,425
2016-05-11T05:30:33.801Z,440
2016-05-11T05:31:33.803Z,460
2016-05-11T05:32:33.821Z,480
2016-05-11T05:33:33.824Z,500
2016-05-11T05:34:33.842Z,515
2016-05-11T05:35:33.845Z,530
2016-05-11T05:36:33.706Z,535
2016-05-11T05:37:33.553Z,555
2016-05-11T05:38:33.728Z,590
2016-05-11T05:39:33.903Z,610
2016-05-11T05:40:33.905Z,625
2016-05-11T05:41:33.924Z,645
2016-05-11T05:42:33.770Z,655
2016-05-11T05:43:33.929Z,655
2016-05-11T05:44:33.947Z,655
2016-05-11T05:45:33.888Z,670
2016-05-11T05:46:33.968Z,690
2016-05-11T05:47:33.986Z,680
2016-05-11T05:48:33.989Z,675
2016-05-11T05:49:34.024Z,705
2016-05-11T05:50:34.010Z,750
2016-05-11T05:51:34.013Z,725
2016-05-11T05:52:34.046Z,695
2016-05-11T05:53:34.049Z,715
2016-05-11T05:54:34.068Z,765
2016-05-11T05:55:34.054Z,810
2016-05-11T05:56:33.917Z,820
2016-05-11T05:57:34.092Z,795
2016-05-11T05:58:34.094Z,800
2016-05-11T05:59:34.112Z,825
2016-05-11T06:00:34.021Z,785
2016-05-11T06:01:34.133Z,795
2016-05-11T06:02:34.137Z,830
2016-05-11T06:03:34.154Z,850
2016-05-11T06:04:34.001Z,895
2016-05-11T06:05:34.019Z,895
2016-05-11T06:06:34.178Z,895
2016-05-11T06:07:34.040Z,930
2016-05-11T06:08:34.214Z,945
2016-05-11T06:09:34.234Z,940
2016-05-11T06:10:34.252Z,955
2016-05-11T06:11:34.254Z,975
2016-05-11T06:12:34.117Z,940
2016-05-11T06:13:34.369Z,850
2016-05-11T06:14:34.122Z,825
2016-05-11T06:15:34.343Z,820
2016-05-11T06:16:34.314Z,865
2016-05-11T06:17:34.317Z,910
2016-05-11T06:18:34.177Z,935
2016-05-11T06:19:35.933Z,1010
2016-05-11T06:20:46.481Z,1060
2016-05-11T06:21:52.734Z,1060
2016-05-11T06:22:45.097Z,1050
2016-05-11T06:23:39.318Z,1035
2016-05-11T06:24:42.007Z,1050
2016-05-11T06:25:47.010Z,1105
2016-05-11T06:26:40.810Z,1105
2016-05-11T06:27:38.516Z,1095
2016-05-11T06:28:35.329Z,1100
2016-05-11T06:29:34.316Z,1120
2016-05-11T06:30:34.474Z,1115
2016-05-11T06:31:34.477Z,1150
2016-05-11T06:32:48.280Z,1200
2016-05-11T06:33:34.515Z,1190
2016-05-11T06:34:34.532Z,1135
2016-05-11T06:35:34.535Z,1190
2016-05-11T06:36:34.382Z,1240
2016-05-11T06:37:34.556Z,1220
2016-05-11T06:38:34.418Z,1185
2016-05-11T06:39:34.577Z,1190
2016-05-11T06:40:34.423Z,1170
2016-05-11T06:41:34.442Z,1175
2016-05-11T06:42:34.460Z,1220
2016-05-11T06:43:34.619Z,1260
2016-05-11T06:44:34.480Z,1265
2016-05-11T06:45:35.311Z,1255
2016-05-11T06:46:34.659Z,1280
2016-05-11T06:47:34.505Z,1255
2016-05-11T06:48:34.680Z,1170
2016-05-11T06:49:34.400Z,1135
2016-05-11T06:50:34.560Z,1135
2016-05-11T06:51:34.563Z,1175
2016-05-11T06:52:34.752Z,1215
2016-05-11T06:53:34.755Z,1250
2016-05-11T06:54:34.758Z,1310
2016-05-11T06:55:34.791Z,1295
2016-05-11T06:56:34.794Z,1400
2016-05-11T06:57:34.641Z,1430
2016-05-11T06:58:34.815Z,1455
2016-05-11T06:59:34.693Z,1490
2016-05-11T07:00:34.852Z,1335
2016-05-11T07:01:37.933Z,1315
2016-05-11T07:02:34.702Z,1340
2016-05-11T07:03:34.734Z,1400
2016-05-11T07:04:34.582Z,1330
2016-05-11T07:05:34.913Z,1140
2016-05-11T07:06:34.931Z,1120
2016-05-11T07:07:34.934Z,1195
2016-05-11T07:08:34.936Z,1325
2016-05-11T07:09:34.970Z,1510
2016-05-11T07:10:35.036Z,1485
2016-05-11T07:11:34.991Z,1450
2016-05-11T07:12:34.994Z,1465
2016-05-11T07:13:34.855Z,1440
2016-05-11T07:14:34.859Z,1450
2016-05-11T07:15:34.783Z,1445
2016-05-11T07:16:35.052Z,1425
2016-05-11T07:17:34.913Z,1435
2016-05-11T07:18:35.072Z,1395
2016-05-11T07:19:34.935Z,1310
2016-05-11T07:20:34.812Z,1340
2016-05-11T07:21:35.143Z,1360
2016-05-11T07:22:34.974Z,1405
2016-05-11T07:23:34.991Z,1400
2016-05-11T07:24:35.026Z,1355
2016-05-11T07:25:35.013Z,1040
2016-05-11T07:26:35.187Z,460
2016-05-11T07:27:35.207Z,115
2016-05-11T07:28:34.897Z,110
2016-05-11T07:29:35.227Z,105
2016-05-11T07:30:35.510Z,105
2016-05-11T07:31:35.092Z,105
2016-05-11T07:32:35.579Z,105
2016-05-11T07:33:35.284Z,100
2016-05-11T07:34:35.131Z,100
2016-05-11T07:35:35.290Z,100
2016-05-11T07:36:35.309Z,100
2016-05-11T07:37:35.326Z,100
2016-05-11T07:38:35.329Z,95
2016-05-11T07:39:35.020Z,95
2016-05-11T07:40:35.335Z,95
2016-05-11T07:41:35.353Z,95
2016-05-11T07:42:35.215Z,95
2016-05-11T07:43:35.218Z,95
2016-05-11T07:44:35.220Z,95
2016-05-11T07:45:35.270Z,95
2016-05-11T07:46:35.398Z,95
2016-05-11T07:47:35.401Z,95
2016-05-11T07:48:35.419Z,95
2016-05-11T07:49:35.437Z,95
2016-05-11T07:50:35.455Z,95
2016-05-11T07:51:35.442Z,95
2016-05-11T07:52:35.476Z,95
2016-05-11T07:53:35.322Z,95
2016-05-11T07:54:35.342Z,95
2016-05-11T07:55:35.188Z,90
2016-05-11T07:56:35.347Z,90
2016-05-11T07:57:35.505Z,90
2016-05-11T07:58:35.507Z,90
2016-05-11T07:59:35.668Z,90
2016-05-11T08:00:35.561Z,90
2016-05-11T08:01:35.423Z,90
2016-05-11T08:02:35.426Z,90
2016-05-11T08:03:35.553Z,90
2016-05-11T08:04:35.571Z,90
2016-05-11T08:05:35.434Z,90
2016-05-11T08:06:35.624Z,90
2016-05-11T08:07:35.626Z,90
2016-05-11T08:08:35.629Z,90
2016-05-11T08:09:35.615Z,90
2016-05-11T08:10:35.634Z,90
2016-05-11T08:11:35.637Z,85
2016-05-11T08:12:35.640Z,85
2016-05-11T08:13:35.658Z,85
2016-05-11T08:14:35.661Z,85
2016-05-11T08:15:35.523Z,85
2016-05-11T08:16:35.681Z,85
2016-05-11T08:17:35.684Z,85
2016-05-11T08:18:35.687Z,85
2016-05-11T08:19:35.705Z,85
2016-05-11T08:20:35.724Z,85
2016-05-11T08:21:35.711Z,85
2016-05-11T08:22:35.619Z,85
2016-05-11T08:23:35.747Z,85
2016-05-11T08:24:35.735Z,85
2016-05-11T08:25:35.597Z,85
2016-05-11T08:26:35.771Z,85
2016-05-11T08:27:35.789Z,85
2016-05-11T08:28:35.621Z,85
2016-05-11T08:29:35.810Z,85
2016-05-11T08:30:36.001Z,85
2016-05-11T08:31:35.800Z,85
2016-05-11T08:32:35.818Z,85
2016-05-11T08:33:35.665Z,85
2016-05-11T08:34:35.683Z,85
2016-05-11T08:35:35.685Z,85
2016-05-11T08:36:35.845Z,85
2016-05-11T08:37:35.848Z,85
2016-05-11T08:38:35.865Z,85
2016-05-11T08:39:35.853Z,85
2016-05-11T08:40:35.871Z,85
2016-05-11T08:41:35.734Z,85
2016-05-11T08:42:35.736Z,85
2016-05-11T08:43:35.895Z,90
2016-05-11T08:44:35.742Z,95
2016-05-11T08:45:36.228Z,100
2016-05-11T08:46:35.919Z,105
2016-05-11T08:47:35.922Z,105
2016-05-11T08:48:35.924Z,100
2016-05-11T08:49:35.943Z,100
2016-05-11T08:50:35.961Z,105
2016-05-11T08:51:35.963Z,105
2016-05-11T08:52:35.810Z,105
2016-05-11T08:53:35.688Z,110
2016-05-11T08:54:35.971Z,105
2016-05-11T08:55:35.833Z,110
2016-05-11T08:56:36.008Z,110
2016-05-11T08:57:35.855Z,110
2016-05-11T08:58:36.013Z,110
2016-05-11T08:59:36.016Z,110
2016-05-11T09:00:36.769Z,110
2016-05-11T09:01:35.724Z,110
2016-05-11T09:02:35.883Z,110
2016-05-11T09:03:36.058Z,110
2016-05-11T09:04:36.061Z,115
2016-05-11T09:05:35.907Z,115
2016-05-11T09:06:36.081Z,115
2016-05-11T09:07:36.101Z,115
2016-05-11T09:08:35.946Z,115
2016-05-11T09:09:36.120Z,115
2016-05-11T09:10:36.109Z,115
2016-05-11T09:11:35.970Z,115
2016-05-11T09:12:35.817Z,115
2016-05-11T09:13:35.976Z,115
2016-05-11T09:14:36.134Z,110
2016-05-11T09:15:36.012Z,110
2016-05-11T09:16:36.139Z,110
2016-05-11T09:17:36.017Z,110
2016-05-11T09:18:35.864Z,105
2016-05-11T09:19:36.038Z,110
2016-05-11T09:20:36.198Z,105
2016-05-11T09:21:36.200Z,110
2016-05-11T09:22:36.203Z,110
2016-05-11T09:23:36.097Z,110
2016-05-11T09:24:36.224Z,110
2016-05-11T09:25:36.070Z,110
2016-05-11T09:26:36.277Z,110
2016-05-11T09:27:36.107Z,110
2016-05-11T09:28:36.250Z,110
2016-05-11T09:29:36.113Z,110
2016-05-11T09:30:36.146Z,110
2016-05-11T09:31:36.274Z,110
2016-05-11T09:32:36.121Z,110
2016-05-11T09:33:36.154Z,110
2016-05-11T09:34:36.157Z,110
2016-05-11T09:35:36.160Z,110
2016-05-11T09:36:36.318Z,110
2016-05-11T09:37:36.321Z,110
2016-05-11T09:38:36.323Z,110
2016-05-11T09:39:36.343Z,115
2016-05-11T09:40:36.346Z,115
2016-05-11T09:41:36.363Z,115
2016-05-11T09:42:36.366Z,115
2016-05-11T09:43:36.384Z,115
2016-05-11T09:44:36.403Z,120
2016-05-11T09:45:36.827Z,120
2016-05-11T09:46:36.408Z,120
2016-05-11T09:47:36.411Z,120
2016-05-11T09:48:36.257Z,120
2016-05-11T09:49:36.275Z,120
2016-05-11T09:50:36.278Z,115
2016-05-11T09:51:36.453Z,115
2016-05-11T09:52:36.456Z,115
2016-05-11T09:53:36.458Z,115
2016-05-11T09:54:36.461Z,115
2016-05-11T09:55:36.479Z,115
2016-05-11T09:56:36.169Z,110
2016-05-11T09:57:36.328Z,110
2016-05-11T09:58:36.503Z,110
2016-05-11T09:59:36.193Z,115
2016-05-11T10:00:36.930Z,115
2016-05-11T10:01:36.370Z,110
2016-05-11T10:02:36.388Z,110
2016-05-11T10:03:36.547Z,110
2016-05-11T10:04:36.549Z,110
2016-05-11T10:05:36.569Z,110
2016-05-11T10:06:36.571Z,110
2016-05-11T10:07:37.637Z,110
2016-05-11T10:08:36.608Z,110
2016-05-11T10:09:36.610Z,110
2016-05-11T10:10:36.441Z,110
2016-05-11T10:11:36.632Z,135
2016-05-11T10:12:36.634Z,135
2016-05-11T10:13:36.481Z,135
2016-05-11T10:14:36.468Z,135
2016-05-11T10:15:36.673Z,135
2016-05-11T10:16:36.661Z,130
2016-05-11T10:17:36.492Z,105
2016-05-11T10:18:36.666Z,135
2016-05-11T10:19:36.670Z,135
2016-05-11T10:20:36.765Z,135
2016-05-11T10:21:36.690Z,135
2016-05-11T10:22:36.692Z,130
2016-05-11T10:23:36.397Z,125
2016-05-11T10:24:36.558Z,135
2016-05-11T10:25:36.903Z,140
2016-05-11T10:26:36.578Z,140
2016-05-11T10:27:36.753Z,140
2016-05-11T10:28:36.755Z,140
2016-05-11T10:29:36.586Z,135
2016-05-11T10:30:37.042Z,135
2016-05-11T10:33:36.878Z,140
2016-05-11T10:33:49.472Z,140
2016-05-11T10:34:49.506Z,140
2016-05-11T10:35:49.540Z,135
2016-05-11T10:36:49.669Z,135
2016-05-11T10:37:49.654Z,135
2016-05-11T10:38:49.502Z,135
2016-05-11T10:39:49.676Z,135
2016-05-11T10:40:49.663Z,105
2016-05-11T10:41:49.682Z,120
2016-05-11T10:42:49.685Z,130
2016-05-11T10:43:49.562Z,130
2016-05-11T10:44:49.689Z,115
2016-05-11T10:45:49.707Z,100
2016-05-11T10:46:49.570Z,100
2016-05-11T10:47:49.712Z,105
2016-05-11T10:48:49.700Z,130
2016-05-11T10:49:49.765Z,125
2016-05-11T10:50:49.409Z,130
2016-05-11T10:51:49.708Z,115
2016-05-11T10:52:49.554Z,95
2016-05-11T10:53:49.557Z,95
2016-05-11T10:54:49.732Z,95
2016-05-11T10:55:49.719Z,95
2016-05-11T10:56:49.581Z,120
2016-05-11T10:57:49.427Z,120
2016-05-11T10:58:49.602Z,95
2016-05-11T10:59:49.777Z,95
2016-05-11T11:00:49.436Z,120
2016-05-11T11:01:49.750Z,125
2016-05-11T11:02:49.753Z,125
2016-05-11T11:03:49.600Z,130
2016-05-11T11:04:49.759Z,130
2016-05-11T11:05:49.605Z,105
2016-05-11T11:06:49.764Z,130
2016-05-11T11:07:49.783Z,130
2016-05-11T11:08:49.785Z,130
2016-05-11T11:09:49.663Z,135
2016-05-11T11:10:49.634Z,135
2016-05-11T11:11:49.810Z,135
2016-05-11T11:12:49.640Z,135
2016-05-11T11:13:49.798Z,130
2016-05-11T11:14:49.818Z,130
2016-05-11T11:15:50.101Z,130
2016-05-11T11:16:49.650Z,125
2016-05-11T11:17:49.809Z,125
2016-05-11T11:18:49.891Z,130
2016-05-11T11:19:49.534Z,125
2016-05-11T11:20:49.676Z,125
2016-05-11T11:21:49.680Z,125
2016-05-11T11:22:49.839Z,125
2016-05-11T11:23:49.701Z,130
2016-05-11T11:24:49.687Z,125
2016-05-11T11:25:49.565Z,130
2016-05-11T11:26:49.850Z,125
2016-05-11T11:27:49.852Z,125
2016-05-11T11:28:49.886Z,120
2016-05-11T11:29:49.873Z,120
2016-05-11T11:30:49.891Z,120
2016-05-11T11:31:49.722Z,100
2016-05-11T11:32:49.881Z,125
2016-05-11T11:33:49.900Z,115
2016-05-11T11:34:49.886Z,100
2016-05-11T11:35:49.608Z,100
2016-05-11T11:36:49.922Z,100
2016-05-11T11:37:49.754Z,110
2016-05-11T11:38:49.913Z,115
2016-05-11T11:39:49.899Z,115
2016-05-11T11:40:49.918Z,110
2016-05-11T11:41:49.952Z,110
2016-05-11T11:42:49.939Z,100
2016-05-11T11:43:49.941Z,85
2016-05-11T11:44:49.913Z,85
2016-05-11T11:45:49.994Z,90
2016-05-11T11:46:49.794Z,90
2016-05-11T11:47:49.781Z,95
2016-05-11T11:48:49.955Z,95
2016-05-11T11:49:49.958Z,100
2016-05-11T11:50:49.945Z,100
2016-05-11T11:51:49.806Z,100
2016-05-11T11:52:49.966Z,120
2016-05-11T11:53:49.812Z,130
2016-05-11T11:54:49.800Z,130
2016-05-11T11:55:49.817Z,130
2016-05-11T11:56:49.977Z,125
2016-05-11T11:57:49.823Z,120
2016-05-11T11:58:49.966Z,115
2016-05-11T11:59:49.985Z,110
2016-05-11T12:00:51.832Z,110
2016-05-11T12:01:50.069Z,105
2016-05-11T12:02:49.680Z,100
2016-05-11T12:03:49.855Z,105
2016-05-11T12:04:49.702Z,105
2016-05-11T12:05:50.016Z,105
2016-05-11T12:06:50.019Z,85
2016-05-11T12:07:50.006Z,85
2016-05-11T12:08:50.025Z,85
2016-05-11T12:09:50.027Z,90
2016-05-11T12:10:50.014Z,95
2016-05-11T12:11:49.877Z,100
2016-05-11T12:12:49.895Z,105
2016-05-11T12:13:50.038Z,110
2016-05-11T12:14:49.713Z,130
2016-05-11T12:15:50.137Z,125
2016-05-11T12:16:50.046Z,130
2016-05-11T12:17:49.893Z,130
2016-05-11T12:18:50.051Z,130
2016-05-11T12:19:49.898Z,135
2016-05-11T12:20:49.745Z,135
2016-05-11T12:21:50.060Z,130
2016-05-11T12:22:49.906Z,125
2016-05-11T12:23:50.081Z,120
2016-05-11T12:24:49.927Z,115
2016-05-11T12:25:50.086Z,115
2016-05-11T12:26:50.089Z,110
2016-05-11T12:27:49.935Z,110
2016-05-11T12:28:49.938Z,110
2016-05-11T12:29:49.940Z,100
2016-05-11T12:30:49.975Z,100
2016-05-11T12:31:50.102Z,95
2016-05-11T12:32:49.808Z,95
2016-05-11T12:33:50.123Z,90
2016-05-11T12:34:49.969Z,95
2016-05-11T12:35:50.128Z,85
2016-05-11T12:36:50.147Z,85
2016-05-11T12:37:50.003Z,95
2016-05-11T12:38:50.225Z,90
2016-05-11T12:39:50.119Z,105
2016-05-11T12:40:50.169Z,105
2016-05-11T12:41:50.219Z,110
2016-05-11T12:42:50.408Z,110
2016-05-11T12:43:50.428Z,110
2016-05-11T12:44:50.447Z,105
2016-05-11T12:45:50.311Z,110
2016-05-11T12:46:50.299Z,110
2016-05-11T12:47:50.344Z,115
2016-05-11T12:48:50.321Z,115
2016-05-11T12:49:50.502Z,105
2016-05-11T12:50:50.496Z,95
2016-05-11T12:51:50.348Z,90
2016-05-11T12:52:50.386Z,90
2016-05-11T12:53:50.391Z,90
2016-05-11T12:54:50.223Z,90
2016-05-11T12:55:50.540Z,90
2016-05-11T12:56:50.608Z,90
2016-05-11T12:57:50.548Z,85
2016-05-11T12:58:50.568Z,85
2016-05-11T12:59:50.572Z,85
2016-05-11T13:00:50.545Z,80
2016-05-11T13:01:50.548Z,75
2016-05-11T13:02:50.566Z,75
2016-05-11T13:03:50.569Z,75
2016-05-11T13:04:50.338Z,75
2016-05-11T13:05:50.607Z,75
2016-05-11T13:06:50.578Z,80
2016-05-11T13:07:50.581Z,80
2016-05-11T13:08:50.271Z,80
2016-05-11T13:09:50.586Z,85
2016-05-11T13:10:50.433Z,85
2016-05-11T13:11:50.607Z,90
2016-05-11T13:12:50.594Z,90
2016-05-11T13:13:50.441Z,90
2016-05-11T13:14:50.616Z,90
2016-05-11T13:15:50.305Z,90
2016-05-11T13:16:50.605Z,85
2016-05-11T13:17:50.608Z,85
2016-05-11T13:18:50.626Z,85
2016-05-11T13:19:50.613Z,80
2016-05-11T13:20:50.616Z,80
2016-05-11T13:21:50.462Z,75
2016-05-11T13:22:50.622Z,75
2016-05-11T13:23:50.624Z,75
2016-05-11T13:24:50.626Z,75
2016-05-11T13:25:50.630Z,75
2016-05-11T13:26:50.320Z,70
2016-05-11T13:27:50.478Z,70
2016-05-11T13:28:50.638Z,75
2016-05-11T13:29:50.500Z,75
2016-05-11T13:30:50.971Z,75
2016-05-11T13:31:50.646Z,75
2016-05-11T13:32:50.509Z,85
2016-05-11T13:33:50.511Z,80
2016-05-11T13:34:50.545Z,80
2016-05-11T13:35:50.516Z,75
2016-05-11T13:36:50.659Z,75
2016-05-11T13:37:50.693Z,80
2016-05-11T13:38:50.665Z,85
2016-05-11T13:39:50.667Z,90
2016-05-11T13:40:50.748Z,95
2016-05-11T13:41:50.532Z,85
2016-05-11T13:42:50.675Z,85
2016-05-11T13:43:50.366Z,85
2016-05-11T13:44:50.541Z,85
2016-05-11T13:45:50.716Z,85
2016-05-11T13:46:50.546Z,85
2016-05-11T13:47:50.392Z,80
2016-05-11T13:48:50.535Z,85
2016-05-11T13:49:50.538Z,85
2016-05-11T13:50:50.713Z,85
2016-05-11T13:51:50.528Z,90
2016-05-11T13:52:50.593Z,80
2016-05-11T13:53:50.704Z,80
2016-05-11T13:54:50.723Z,80
2016-05-11T13:55:50.726Z,90
2016-05-11T13:56:50.713Z,90
2016-05-11T13:57:50.560Z,90
2016-05-11T13:58:50.719Z,90
2016-05-11T13:59:50.721Z,90
2016-05-11T14:00:50.723Z,90
2016-05-11T14:01:50.414Z,95
2016-05-11T14:02:50.557Z,95
2016-05-11T14:03:50.748Z,95
2016-05-11T14:04:50.751Z,95
2016-05-11T14:05:50.597Z,95
2016-05-11T14:06:50.740Z,95
2016-05-11T14:07:50.430Z,95
2016-05-11T14:08:50.745Z,90
2016-05-11T14:09:50.592Z,90